Time;durP1;ratioP1;P1;durP2;ratioP2;P2;SDS_P1;SDS_P2;PMS_P1;PMS_P2;Temp;Humidity;BMP_temperature;BMP_pressure;BME280_temperature;BME280_humidity;BME280_pressure;Samples;Min_cycle;Max_cycle;Signal;HPM_P1;HPM_P2
2023/04/10 00:00:07;;;;;;;19.17;12.40;;;;;;;17.88;39.44;102101.34;5051234;28;20403;-69
2023/04/10 00:02:32;;;;;;;23.30;12.57;;;;;;;17.56;39.52;102104.66;5052556;28;20028;-68
2023/04/10 00:04:59;;;;;;;22.70;13.37;;;;;;;17.56;39.38;102099.38;5051101;28;20029;-68
2023/04/10 00:07:25;;;;;;;21.27;11.97;;;;;;;18.04;39.12;102087.81;5049811;28;20036;-69
2023/04/10 00:09:51;;;;;;;22.83;12.50;;;;;;;18.02;39.02;102092.28;5050936;28;20024;-69
2023/04/10 00:12:16;;;;;;;17.13;11.33;;;;;;;17.81;40.09;102084.72;5050341;28;20535;-69
2023/04/10 00:14:41;;;;;;;20.47;11.93;;;;;;;17.74;39.67;102075.19;5049988;28;20060;-69
2023/04/10 00:17:07;;;;;;;21.67;12.97;;;;;;;17.34;39.87;102077.72;5050390;28;20021;-68
2023/04/10 00:19:32;;;;;;;19.57;12.23;;;;;;;17.74;39.53;102072.53;5052325;28;20038;-68
2023/04/10 00:21:58;;;;;;;19.77;11.80;;;;;;;17.52;39.75;102071.25;5051491;28;20214;-68
2023/04/10 00:24:23;;;;;;;20.53;12.27;;;;;;;17.75;39.61;102066.38;5051078;28;20610;-68
2023/04/10 00:26:49;;;;;;;21.70;12.27;;;;;;;16.76;41.15;102068.13;5050659;28;20024;-69
2023/04/10 00:29:14;;;;;;;21.83;12.17;;;;;;;17.35;40.35;102075.09;5050954;28;20104;-68
2023/04/10 00:31:40;;;;;;;18.83;12.43;;;;;;;17.19;40.69;102073.63;5052188;28;20042;-69
2023/04/10 00:34:05;;;;;;;18.50;11.47;;;;;;;17.64;40.38;102071.00;5050204;28;20029;-69
2023/04/10 00:36:31;;;;;;;20.37;12.20;;;;;;;16.91;41.50;102074.06;5051620;28;20025;-69
2023/04/10 00:38:58;;;;;;;19.80;12.50;;;;;;;17.41;40.73;102072.31;5052085;28;20095;-68
2023/04/10 00:41:24;;;;;;;22.47;12.90;;;;;;;17.04;40.40;102064.19;5050243;28;20033;-68
2023/04/10 00:43:53;;;;;;;19.73;11.77;;;;;;;17.00;41.13;102060.72;5049489;28;20032;-69
2023/04/10 00:46:19;;;;;;;19.13;11.67;;;;;;;17.72;40.01;102058.50;5050009;28;20039;-67
2023/04/10 00:48:44;;;;;;;16.97;11.47;;;;;;;17.14;40.40;102060.47;5050398;28;20123;-69
2023/04/10 00:51:10;;;;;;;20.97;12.93;;;;;;;18.24;38.92;102055.66;5048959;28;20052;-69
2023/04/10 00:53:36;;;;;;;18.57;12.10;;;;;;;18.04;38.76;102049.03;5051558;28;20025;-68
2023/04/10 00:56:01;;;;;;;17.57;11.73;;;;;;;18.04;38.85;102046.38;5049474;28;20060;-68
2023/04/10 00:58:27;;;;;;;20.20;11.37;;;;;;;17.23;40.08;102046.25;5051171;28;20392;-68
2023/04/10 01:00:54;;;;;;;19.93;12.27;;;;;;;17.59;39.70;102044.63;5050221;28;20381;-68
2023/04/10 01:03:20;;;;;;;19.73;11.63;;;;;;;16.94;41.03;102035.28;5048972;28;20388;-68
2023/04/10 01:06:25;;;;;;;18.87;11.70;;;;;;;17.11;40.84;102029.69;5050060;28;20029;-68
2023/04/10 01:09:06;;;;;;;20.20;11.43;;;;;;;16.52;42.01;102023.66;5049307;28;20036;-68
2023/04/10 01:12:02;;;;;;;20.60;12.57;;;;;;;16.91;41.49;102021.25;5050550;28;20029;-69
2023/04/10 01:14:41;;;;;;;17.93;11.60;;;;;;;16.54;42.59;102016.56;5042938;28;20036;-68
2023/04/10 01:17:12;;;;;;;19.73;11.47;;;;;;;16.90;41.47;102012.47;5048775;28;20029;-69
2023/04/10 01:20:06;;;;;;;21.40;11.57;;;;;;;16.90;41.91;102008.97;5049886;28;20028;-69
2023/04/10 01:22:40;;;;;;;20.23;11.47;;;;;;;17.06;41.30;102009.56;5049842;28;20072;-69
2023/04/10 01:25:05;;;;;;;18.97;11.33;;;;;;;16.92;41.69;102001.88;5048245;28;20542;-68
2023/04/10 01:28:04;;;;;;;17.40;11.47;;;;;;;16.49;42.09;101999.97;5049622;28;20041;-68
2023/04/10 01:30:34;;;;;;;20.97;10.80;;;;;;;16.80;41.81;101997.66;5051065;28;20388;-68
2023/04/10 01:33:01;;;;;;;17.17;11.00;;;;;;;16.69;42.52;101996.97;5048561;28;20040;-68
2023/04/10 01:35:30;;;;;;;18.13;11.70;;;;;;;17.16;41.64;101999.69;5048059;28;20047;-69
2023/04/10 01:37:58;;;;;;;16.90;10.77;;;;;;;16.88;41.89;101990.47;5050801;28;20059;-68
2023/04/10 01:40:26;;;;;;;17.53;11.63;;;;;;;17.28;41.57;101981.84;5048266;28;20352;-68
2023/04/10 01:42:54;;;;;;;22.03;11.37;;;;;;;16.93;41.94;101987.78;5065859;28;20029;-69
2023/04/10 01:45:24;;;;;;;17.07;10.83;;;;;;;16.55;42.98;101981.38;5064786;28;20115;-68
2023/04/10 01:47:50;;;;;;;17.47;10.80;;;;;;;16.88;42.31;101986.97;5049121;28;20028;-68
2023/04/10 01:50:17;;;;;;;18.17;10.67;;;;;;;16.18;43.74;101987.25;5050076;28;20033;-68
2023/04/10 01:52:44;;;;;;;20.83;11.43;;;;;;;16.84;42.72;101978.22;5048202;28;20033;-68
2023/04/10 01:55:10;;;;;;;18.13;11.07;;;;;;;16.66;42.90;101976.78;5048663;28;20443;-69
2023/04/10 01:57:36;;;;;;;17.47;10.73;;;;;;;17.05;41.85;101976.09;5049109;28;20500;-68
2023/04/10 02:00:05;;;;;;;20.40;10.80;;;;;;;17.42;41.39;101973.63;5049610;28;20029;-69
2023/04/10 02:02:32;;;;;;;23.13;11.63;;;;;;;16.64;42.66;101965.38;5050314;28;20152;-69
2023/04/10 02:04:57;;;;;;;19.37;11.27;;;;;;;16.90;42.51;101987.84;5049982;28;20036;-69
2023/04/10 02:07:50;;;;;;;21.53;11.87;;;;;;;16.77;42.95;101976.59;5048990;28;20037;-68
2023/04/10 02:10:23;;;;;;;18.90;11.27;;;;;;;16.89;42.61;101975.53;5048332;28;20111;-69
2023/04/10 02:12:58;;;;;;;18.70;11.03;;;;;;;17.00;41.93;101968.28;5048730;28;20116;-68
2023/04/10 02:15:26;;;;;;;16.30;10.40;;;;;;;16.98;42.41;101974.50;5049019;28;20063;-69
2023/04/10 02:17:53;;;;;;;18.53;11.47;;;;;;;17.15;42.07;101968.91;5048835;28;20028;-69
2023/04/10 02:20:19;;;;;;;16.13;9.77;;;;;;;17.36;41.42;101976.38;5047364;28;20045;-69
2023/04/10 02:22:45;;;;;;;16.27;10.70;;;;;;;16.55;42.92;101976.09;5049881;28;20017;-69
2023/04/10 02:25:10;;;;;;;17.57;11.13;;;;;;;16.86;42.34;101971.16;5049291;28;20028;-68
2023/04/10 02:27:37;;;;;;;14.87;10.10;;;;;;;16.86;42.06;101972.94;5049244;28;20436;-68
2023/04/10 02:30:06;;;;;;;17.57;10.63;;;;;;;16.84;42.56;101967.66;5065065;28;20025;-68
2023/04/10 02:32:32;;;;;;;17.30;10.97;;;;;;;16.62;43.32;101967.16;5048316;28;20025;-68
2023/04/10 02:34:57;;;;;;;16.13;10.47;;;;;;;16.95;41.96;101964.84;5047346;28;20111;-69
2023/04/10 02:37:23;;;;;;;16.93;10.17;;;;;;;16.78;42.76;101973.06;5049394;28;20273;-68
2023/04/10 02:39:49;;;;;;;15.10;9.67;;;;;;;16.97;42.46;101968.34;5049663;28;20405;-69
2023/04/10 02:42:15;;;;;;;16.17;10.63;;;;;;;17.06;42.19;101972.56;5047011;28;20485;-69
2023/04/10 02:44:40;;;;;;;15.53;10.07;;;;;;;16.95;42.41;101980.69;5049364;28;20032;-68
2023/04/10 02:47:06;;;;;;;15.93;9.90;;;;;;;17.04;41.63;101972.59;5047562;28;20064;-67
2023/04/10 02:49:33;;;;;;;16.67;9.50;;;;;;;17.20;41.55;101974.94;5047534;28;20025;-69
2023/04/10 02:51:58;;;;;;;16.13;9.87;;;;;;;17.37;41.27;101986.06;5047925;28;20057;-68
2023/04/10 02:54:24;;;;;;;15.10;9.30;;;;;;;17.21;41.27;101987.25;5049111;28;20146;-69
2023/04/10 02:56:49;;;;;;;14.90;9.30;;;;;;;17.27;41.62;101989.81;5048752;28;20028;-69
2023/04/10 02:59:15;;;;;;;14.87;9.30;;;;;;;17.05;41.79;101987.56;5047659;28;20032;-69
2023/04/10 03:01:40;;;;;;;15.70;9.70;;;;;;;16.98;42.20;101974.50;5048073;28;20036;-69
2023/04/10 03:04:06;;;;;;;14.33;9.40;;;;;;;17.25;41.16;101981.88;5046919;28;20029;-70
2023/04/10 03:06:31;;;;;;;15.20;9.20;;;;;;;17.23;41.27;101975.78;5049525;28;20379;-71
2023/04/10 03:08:57;;;;;;;14.43;9.10;;;;;;;17.32;40.79;101969.41;5048022;28;20542;-68
2023/04/10 03:11:22;;;;;;;14.13;9.43;;;;;;;17.18;41.20;101971.47;5048279;28;20148;-70
2023/04/10 03:13:48;;;;;;;13.67;8.80;;;;;;;17.01;41.80;101967.41;5049298;28;20036;-69
2023/04/10 03:16:16;;;;;;;14.80;8.73;;;;;;;17.02;41.40;101969.16;5047684;28;20035;-69
2023/04/10 03:18:41;;;;;;;13.20;8.80;;;;;;;16.63;42.30;101964.50;5048549;28;20031;-69
2023/04/10 03:21:07;;;;;;;12.77;8.57;;;;;;;17.06;41.54;101960.25;5047733;28;20029;-70
2023/04/10 03:23:32;;;;;;;12.87;8.53;;;;;;;16.95;41.54;101952.53;5049012;28;20021;-70
2023/04/10 03:25:57;;;;;;;12.77;8.37;;;;;;;16.71;41.48;101956.47;5048838;28;20095;-72
2023/04/10 03:28:23;;;;;;;13.93;8.50;;;;;;;16.51;42.30;101958.56;5047646;28;20102;-68
2023/04/10 03:30:51;;;;;;;12.43;8.30;;;;;;;16.56;42.55;101951.44;5048469;28;20031;-69
2023/04/10 03:33:17;;;;;;;13.40;8.67;;;;;;;16.66;41.58;101955.66;5049034;28;20099;-69
2023/04/10 03:35:45;;;;;;;14.07;8.33;;;;;;;16.81;41.56;101951.03;5048015;28;20461;-69
2023/04/10 03:38:10;;;;;;;13.63;8.83;;;;;;;16.65;41.15;101943.38;5048212;28;20067;-70
2023/04/10 03:40:36;;;;;;;14.07;8.30;;;;;;;16.84;41.60;101940.38;5049020;28;20029;-69
2023/04/10 03:43:02;;;;;;;11.83;7.70;;;;;;;17.13;40.37;101938.09;5047884;28;20079;-70
2023/04/10 03:45:27;;;;;;;12.80;8.03;;;;;;;17.09;40.65;101920.56;5046435;28;20036;-69
2023/04/10 03:47:52;;;;;;;12.93;8.03;;;;;;;17.07;41.05;101922.34;5047677;28;20102;-70
2023/04/10 03:50:18;;;;;;;12.93;7.83;;;;;;;17.08;40.34;101924.09;5048951;28;20214;-70
2023/04/10 03:52:43;;;;;;;13.23;8.33;;;;;;;16.59;41.30;101922.38;5046851;28;20033;-69
2023/04/10 03:55:09;;;;;;;13.73;8.60;;;;;;;16.73;41.33;101915.06;5047269;28;20017;-70
2023/04/10 03:57:34;;;;;;;13.63;7.73;;;;;;;16.59;41.32;101911.81;5048990;28;20017;-67
2023/04/10 04:00:00;;;;;;;12.13;7.63;;;;;;;17.15;40.69;101918.72;5051013;28;20070;-67
2023/04/10 04:02:25;;;;;;;17.17;8.10;;;;;;;17.06;40.55;101904.78;5050776;28;20067;-68
2023/04/10 04:04:51;;;;;;;13.67;7.97;;;;;;;16.43;41.63;101914.72;5052671;28;20029;-68
2023/04/10 04:07:16;;;;;;;12.93;8.23;;;;;;;17.22;39.83;101905.31;5049712;28;20021;-68
2023/04/10 04:09:41;;;;;;;11.57;7.77;;;;;;;17.24;40.23;101907.94;5052404;28;20024;-67
2023/04/10 04:12:07;;;;;;;13.87;7.20;;;;;;;17.37;39.53;101914.72;5050680;28;20524;-69
2023/04/10 04:14:33;;;;;;;11.23;7.70;;;;;;;17.33;39.51;101917.47;5050401;28;20114;-68
2023/04/10 04:16:58;;;;;;;12.40;7.97;;;;;;;17.72;38.93;101897.22;5052484;28;20039;-67
2023/04/10 04:19:24;;;;;;;12.93;7.47;;;;;;;17.13;40.19;101905.50;5050390;28;20485;-68
2023/04/10 04:21:49;;;;;;;12.00;7.83;;;;;;;17.96;38.54;101894.91;5051420;28;20024;-68
2023/04/10 04:24:15;;;;;;;13.63;7.50;;;;;;;17.48;39.42;101897.75;5050072;28;20056;-67
2023/04/10 04:26:40;;;;;;;10.50;7.70;;;;;;;17.69;39.08;101893.75;5050586;28;20024;-68
2023/04/10 04:29:06;;;;;;;10.90;7.57;;;;;;;17.63;39.23;101889.47;5049461;28;20016;-67
2023/04/10 04:31:31;;;;;;;11.80;7.07;;;;;;;17.51;39.35;101887.13;5050573;28;20024;-67
2023/04/10 04:34:00;;;;;;;12.13;7.43;;;;;;;17.57;39.03;101879.03;5049941;28;20029;-68
2023/04/10 04:36:27;;;;;;;13.37;8.00;;;;;;;17.50;39.41;101880.09;5051311;28;20029;-67
2023/04/10 04:38:52;;;;;;;12.90;7.93;;;;;;;17.09;39.78;101878.31;5051913;28;20028;-68
2023/04/10 04:41:18;;;;;;;11.20;7.63;;;;;;;17.19;39.92;101883.41;5049305;28;20028;-67
2023/04/10 04:43:44;;;;;;;10.63;7.47;;;;;;;17.16;39.75;101873.78;5050683;28;20021;-69
2023/04/10 04:46:09;;;;;;;10.17;7.17;;;;;;;17.75;38.92;101865.41;5049813;28;20024;-69
2023/04/10 04:48:35;;;;;;;12.07;8.40;;;;;;;17.65;39.27;101866.50;5049524;28;20076;-69
2023/04/10 04:51:00;;;;;;;11.20;7.53;;;;;;;17.77;38.68;101866.22;5051377;28;20070;-69
2023/04/10 04:53:26;;;;;;;14.50;8.63;;;;;;;16.77;40.26;101866.59;5051203;28;20167;-70
2023/04/10 04:55:51;;;;;;;12.20;7.70;;;;;;;17.24;39.49;101860.38;5051011;28;20029;-70
2023/04/10 04:58:17;;;;;;;11.97;8.57;;;;;;;16.61;40.94;101865.16;5051092;28;20036;-70
2023/04/10 05:00:42;;;;;;;14.43;7.77;;;;;;;17.20;40.00;101864.00;5050259;28;20330;-69
2023/04/10 05:03:07;;;;;;;12.10;7.77;;;;;;;17.28;39.97;101872.63;5050512;28;20068;-70
2023/04/10 05:05:33;;;;;;;12.53;7.83;;;;;;;17.30;39.03;101863.75;5050015;28;20033;-70
2023/04/10 05:07:58;;;;;;;11.93;8.00;;;;;;;15.53;42.65;101869.53;5049864;28;20123;-70
2023/04/10 05:10:24;;;;;;;11.63;7.83;;;;;;;17.22;40.01;101857.78;5048902;28;20041;-70
2023/04/10 05:12:49;;;;;;;16.23;7.93;;;;;;;17.24;39.86;101865.66;5050077;28;20017;-69
2023/04/10 05:15:15;;;;;;;11.87;8.07;;;;;;;17.52;39.19;101857.16;5050805;28;20033;-68
2023/04/10 05:17:40;;;;;;;11.90;7.93;;;;;;;17.52;39.51;101860.66;5049079;28;20036;-67
2023/04/10 05:20:06;;;;;;;11.50;8.43;;;;;;;17.57;39.04;101857.88;5049314;28;20032;-67
2023/04/10 05:22:32;;;;;;;12.13;8.00;;;;;;;16.48;41.56;101866.28;5050995;28;20141;-70
2023/04/10 05:24:58;;;;;;;12.93;7.87;;;;;;;17.50;39.75;101872.16;5049042;28;20120;-70
2023/04/10 05:27:25;;;;;;;12.43;8.23;;;;;;;17.57;39.64;101868.47;5050516;28;20028;-70
2023/04/10 05:29:50;;;;;;;12.63;8.13;;;;;;;17.44;39.87;101863.44;5051003;28;20427;-71
2023/04/10 05:32:15;;;;;;;13.37;8.37;;;;;;;17.20;40.29;101864.00;5048636;28;20013;-69
2023/04/10 05:34:41;;;;;;;13.37;9.07;;;;;;;16.98;40.08;101872.38;5050882;28;20074;-70
2023/04/10 05:37:07;;;;;;;11.53;7.40;;;;;;;17.66;39.31;101873.53;5050429;28;20108;-69
2023/04/10 05:39:33;;;;;;;12.83;7.70;;;;;;;17.77;39.05;101863.56;5050373;28;20021;-70
2023/04/10 05:41:58;;;;;;;13.90;8.30;;;;;;;17.52;39.88;101873.00;5049255;28;20106;-69
2023/04/10 05:44:23;;;;;;;11.50;7.37;;;;;;;17.48;39.67;101876.63;5048222;28;20029;-68
2023/04/10 05:46:49;;;;;;;12.47;7.90;;;;;;;16.35;41.67;101869.13;5049293;28;20028;-70
2023/04/10 05:49:15;;;;;;;12.53;7.80;;;;;;;17.39;39.95;101869.75;5048914;28;20044;-69
2023/04/10 05:51:41;;;;;;;12.07;7.57;;;;;;;16.22;42.33;101865.81;5049557;28;20045;-70
2023/04/10 05:54:06;;;;;;;10.13;7.57;;;;;;;16.18;42.35;101855.34;5048663;28;20404;-68
2023/04/10 05:56:31;;;;;;;10.47;7.63;;;;;;;16.66;41.78;101855.34;5050112;28;20056;-69
2023/04/10 05:58:57;;;;;;;10.77;7.63;;;;;;;16.95;41.93;101853.94;5048119;28;20029;-70
2023/04/10 06:01:22;;;;;;;12.67;7.93;;;;;;;16.83;41.95;101848.88;5048356;28;20566;-69
2023/04/10 06:03:48;;;;;;;11.63;7.70;;;;;;;17.04;41.84;101847.63;5048787;28;20021;-69
2023/04/10 06:06:13;;;;;;;12.20;7.70;;;;;;;16.98;42.09;101853.00;5049003;28;20047;-70
2023/04/10 06:08:39;;;;;;;10.53;7.30;;;;;;;16.08;43.66;101839.69;5050040;28;20519;-69
2023/04/10 06:11:05;;;;;;;13.77;8.07;;;;;;;16.85;42.46;101836.53;5049722;28;20091;-69
2023/04/10 06:13:31;;;;;;;11.33;7.63;;;;;;;17.33;41.26;101828.47;5049296;28;20025;-69
2023/04/10 06:15:56;;;;;;;12.80;8.10;;;;;;;17.02;41.50;101833.56;5048656;28;20387;-70
2023/04/10 06:18:22;;;;;;;14.13;8.73;;;;;;;16.51;42.72;101829.25;5049324;28;20035;-69
2023/04/10 06:20:47;;;;;;;13.07;8.60;;;;;;;16.72;41.88;101828.84;5047782;28;20385;-69
2023/04/10 06:23:12;;;;;;;12.33;7.73;;;;;;;16.09;43.19;101820.34;5047674;28;20025;-69
2023/04/10 06:25:38;;;;;;;11.73;8.07;;;;;;;15.68;43.20;101818.38;5048590;28;20052;-69
2023/04/10 06:28:04;;;;;;;11.30;8.27;;;;;;;16.66;41.80;101813.13;5047372;28;20036;-69
2023/04/10 06:30:30;;;;;;;11.43;7.63;;;;;;;16.22;42.76;101806.94;5049887;28;20028;-69
2023/04/10 06:32:55;;;;;;;12.47;8.33;;;;;;;16.03;43.03;101799.38;5049683;28;20028;-70
2023/04/10 06:35:21;;;;;;;11.47;7.83;;;;;;;16.64;41.79;101796.47;5046947;28;20046;-69
2023/04/10 06:37:47;;;;;;;12.27;7.87;;;;;;;16.88;41.46;101784.50;5049612;28;20021;-68
2023/04/10 06:40:13;;;;;;;12.57;8.23;;;;;;;16.17;42.68;101791.19;5048000;28;20056;-69
2023/04/10 06:42:40;;;;;;;13.33;7.97;;;;;;;16.65;41.60;101787.66;5047582;28;20028;-68
2023/04/10 06:45:06;;;;;;;12.87;8.40;;;;;;;16.87;41.42;101781.91;5047629;28;20116;-68
2023/04/10 06:47:32;;;;;;;11.80;7.17;;;;;;;17.61;39.83;101780.25;5048871;28;20021;-68
2023/04/10 06:49:57;;;;;;;12.50;8.27;;;;;;;17.39;40.50;101770.22;5048164;28;20040;-69
2023/04/10 06:52:22;;;;;;;10.70;7.67;;;;;;;17.39;40.58;101770.22;5047719;28;20287;-68
2023/04/10 06:54:48;;;;;;;13.70;7.93;;;;;;;17.29;40.60;101763.41;5047315;28;20021;-68
2023/04/10 06:57:13;;;;;;;11.33;8.00;;;;;;;17.24;41.02;101757.34;5049204;28;20036;-68
2023/04/10 06:59:39;;;;;;;12.63;8.07;;;;;;;17.44;39.84;101760.38;5048099;28;20025;-68
2023/04/10 07:02:04;;;;;;;12.23;7.77;;;;;;;17.00;40.70;101754.38;5048304;28;20047;-69
2023/04/10 07:04:30;;;;;;;12.47;8.10;;;;;;;17.96;39.49;101754.75;5049346;28;20029;-69
2023/04/10 07:06:55;;;;;;;11.53;8.00;;;;;;;18.11;39.69;101749.03;5049485;28;20082;-68
2023/04/10 07:09:21;;;;;;;12.13;8.03;;;;;;;17.95;39.32;101753.00;5046893;28;20025;-69
2023/04/10 07:11:47;;;;;;;12.97;8.40;;;;;;;18.30;39.10;101748.53;5049319;28;20116;-68
2023/04/10 07:14:12;;;;;;;17.73;9.37;;;;;;;18.46;39.25;101744.56;5048942;28;20029;-69
2023/04/10 07:16:37;;;;;;;11.73;8.13;;;;;;;17.87;39.32;101744.34;5047201;28;20021;-68
2023/04/10 07:19:06;;;;;;;12.67;8.13;;;;;;;18.64;38.25;101729.91;5049314;28;20378;-69
2023/04/10 07:21:31;;;;;;;13.97;8.90;;;;;;;18.80;38.40;101732.94;5047934;28;20013;-68
2023/04/10 07:23:57;;;;;;;13.37;7.50;;;;;;;18.95;38.45;101726.34;5048632;28;20028;-68
2023/04/10 07:26:22;;;;;;;12.70;8.23;;;;;;;19.02;37.94;101724.38;5047538;28;20293;-68
2023/04/10 07:28:48;;;;;;;13.53;7.70;;;;;;;17.95;39.48;101731.84;5048087;28;20075;-69
2023/04/10 07:31:13;;;;;;;12.20;8.20;;;;;;;19.25;37.62;101717.50;5048059;28;20041;-68
2023/04/10 07:33:39;;;;;;;11.87;8.13;;;;;;;18.76;38.53;101722.50;5048606;28;20035;-68
2023/04/10 07:36:05;;;;;;;10.97;7.67;;;;;;;18.82;38.31;101715.25;5052617;28;20039;-69
2023/04/10 07:38:31;;;;;;;13.37;8.10;;;;;;;19.69;36.36;101715.13;5050962;28;20025;-69
2023/04/10 07:40:58;;;;;;;11.40;7.60;;;;;;;18.77;37.85;101711.84;5051630;28;20024;-69
2023/04/10 07:43:23;;;;;;;13.33;8.53;;;;;;;19.23;37.28;101711.34;5051333;28;20785;-70
2023/04/10 07:45:49;;;;;;;11.67;7.63;;;;;;;18.93;37.50;101708.75;5052318;28;20519;-69
2023/04/10 07:48:14;;;;;;;13.33;8.20;;;;;;;18.74;37.85;101706.66;5051243;28;20504;-70
2023/04/10 07:50:40;;;;;;;13.40;8.07;;;;;;;19.54;36.99;101697.09;5052608;28;20049;-69
2023/04/10 07:53:08;;;;;;;11.20;7.53;;;;;;;19.78;36.49;101690.06;5051588;28;20110;-70
2023/04/10 07:55:42;;;;;;;12.17;7.93;;;;;;;20.18;36.02;101688.66;5051158;28;20029;-69
2023/04/10 07:58:07;;;;;;;14.67;8.03;;;;;;;18.92;37.18;101683.22;5051383;28;20092;-68
2023/04/10 08:00:33;;;;;;;9.60;7.63;;;;;;;19.64;36.22;101687.91;5052548;28;20028;-67
2023/04/10 08:02:59;;;;;;;11.07;7.37;;;;;;;19.36;36.21;101687.97;5051027;28;20115;-68
2023/04/10 08:05:25;;;;;;;11.97;8.30;;;;;;;19.09;36.57;101675.56;5050057;28;20416;-68
2023/04/10 08:07:50;;;;;;;12.93;7.80;;;;;;;19.73;36.43;101676.97;5051239;28;20063;-67
2023/04/10 08:10:15;;;;;;;9.52;7.07;;;;;;;19.54;36.62;101658.19;5051811;28;20481;-68
2023/04/10 08:12:41;;;;;;;10.50;7.50;;;;;;;19.41;37.13;101663.06;5050130;28;20052;-68
2023/04/10 08:15:06;;;;;;;9.97;7.43;;;;;;;19.54;36.30;101654.69;5050492;28;20025;-67
2023/04/10 08:17:32;;;;;;;11.20;7.40;;;;;;;20.14;35.63;101649.88;5052274;28;20025;-67
2023/04/10 08:19:57;;;;;;;13.75;7.88;;;;;;;19.80;36.52;101656.44;5050039;28;20032;-67
2023/04/10 08:22:22;;;;;;;10.67;7.73;;;;;;;19.70;36.50;101650.56;5050408;28;20474;-68
2023/04/10 08:24:48;;;;;;;14.40;8.07;;;;;;;20.07;35.92;101646.63;5050838;28;20029;-67
2023/04/10 08:27:15;;;;;;;11.88;7.88;;;;;;;19.54;36.87;101659.97;5049891;28;20519;-67
2023/04/10 08:29:40;;;;;;;11.13;8.55;;;;;;;20.30;35.39;101651.03;5052052;28;20131;-68
2023/04/10 08:32:06;;;;;;;11.73;7.82;;;;;;;19.94;35.73;101653.28;5049983;28;20415;-67
2023/04/10 08:34:31;;;;;;;10.65;7.82;;;;;;;20.55;35.41;101643.94;5049961;28;20028;-68
2023/04/10 08:36:57;;;;;;;11.90;8.07;;;;;;;19.75;36.20;101643.28;5050536;28;20025;-67
2023/04/10 08:39:22;;;;;;;11.90;8.00;;;;;;;20.75;34.79;101640.53;5051418;28;20021;-67
2023/04/10 08:41:48;;;;;;;10.35;7.28;;;;;;;20.72;34.56;101630.88;5050977;28;20443;-68
2023/04/10 08:44:13;;;;;;;11.50;8.02;;;;;;;20.50;35.18;101623.72;5050998;28;20039;-67
2023/04/10 08:46:42;;;;;;;11.10;7.93;;;;;;;20.64;34.86;101633.81;5050349;28;20036;-67
2023/04/10 08:49:30;;;;;;;15.20;8.15;;;;;;;20.46;35.47;101624.78;5048990;28;20035;-67
2023/04/10 08:51:57;;;;;;;10.50;6.82;;;;;;;20.15;35.52;101619.78;5049499;28;20044;-68
2023/04/10 08:54:34;;;;;;;8.85;6.85;;;;;;;19.27;37.15;101610.47;5049112;28;20040;-68
2023/04/10 08:57:00;;;;;;;9.32;7.00;;;;;;;19.71;36.07;101609.00;5050159;28;20032;-68
2023/04/10 08:59:30;;;;;;;8.82;6.85;;;;;;;19.90;36.06;101606.56;5049504;28;20017;-68
2023/04/10 09:01:56;;;;;;;9.65;7.00;;;;;;;20.28;35.67;101598.97;5049403;28;20036;-68
2023/04/10 09:04:23;;;;;;;9.20;6.65;;;;;;;19.41;36.45;101607.38;5049636;28;20537;-68
2023/04/10 09:06:48;;;;;;;12.18;7.18;;;;;;;20.32;35.51;101596.13;5051496;28;20029;-68
2023/04/10 09:09:14;;;;;;;9.45;7.28;;;;;;;20.89;34.58;101594.81;5048915;28;20508;-68
2023/04/10 09:11:51;;;;;;;9.05;6.78;;;;;;;20.27;35.31;101581.28;5049824;28;20021;-69
2023/04/10 09:14:25;;;;;;;10.45;7.28;;;;;;;20.22;34.90;101577.94;5049363;28;20043;-69
2023/04/10 09:16:53;;;;;;;10.35;7.05;;;;;;;20.48;35.39;101584.88;5050673;28;20040;-68
2023/04/10 09:19:32;;;;;;;9.80;6.82;;;;;;;19.70;35.68;101580.72;5049285;28;20025;-68
2023/04/10 09:21:57;;;;;;;9.77;6.88;;;;;;;20.45;35.04;101585.00;5049762;28;20119;-68
2023/04/10 09:24:23;;;;;;;9.95;6.75;;;;;;;20.68;34.55;101571.69;5049819;28;20284;-68
2023/04/10 09:26:49;;;;;;;9.48;7.15;;;;;;;20.67;35.15;101569.06;5051054;28;20028;-68
2023/04/10 09:29:17;;;;;;;11.10;7.95;;;;;;;21.31;34.11;101576.16;5050385;28;20024;-68
2023/04/10 09:31:43;;;;;;;9.63;7.13;;;;;;;21.25;34.16;101564.94;5049503;28;20017;-68
2023/04/10 09:34:13;;;;;;;10.07;7.38;;;;;;;21.59;33.72;101548.38;5050302;28;20038;-69
2023/04/10 09:36:43;;;;;;;9.35;7.18;;;;;;;21.72;33.58;101543.38;5049934;28;20025;-69
2023/04/10 09:39:10;;;;;;;12.20;7.75;;;;;;;19.93;35.31;101550.75;5048788;28;20090;-68
2023/04/10 09:41:50;;;;;;;12.52;7.28;;;;;;;20.42;34.96;101554.13;5050614;28;20021;-68
2023/04/10 09:44:18;;;;;;;12.32;8.32;;;;;;;20.19;34.79;101543.56;5048115;28;20393;-68
2023/04/10 09:46:45;;;;;;;15.38;8.38;;;;;;;20.34;35.14;101537.66;5049377;28;20021;-69
2023/04/10 09:49:10;;;;;;;13.35;7.78;;;;;;;19.39;36.54;101545.59;5048564;28;20056;-68
2023/04/10 09:51:36;;;;;;;11.70;8.70;;;;;;;20.93;34.63;101537.94;5049584;28;20537;-69
2023/04/10 09:54:02;;;;;;;13.15;8.68;;;;;;;21.08;34.86;101550.56;5049017;28;20408;-68
2023/04/10 09:56:35;;;;;;;15.68;9.40;;;;;;;20.35;35.66;101536.72;5047867;28;20029;-69
2023/04/10 09:59:03;;;;;;;13.82;9.52;;;;;;;19.75;36.68;101525.75;5048229;28;20374;-68
2023/04/10 10:01:33;;;;;;;14.30;8.27;;;;;;;19.90;36.72;101522.53;5048779;28;20063;-68
2023/04/10 10:04:02;;;;;;;9.73;7.13;;;;;;;20.74;35.82;101514.78;5048941;28;20382;-68
2023/04/10 10:06:30;;;;;;;11.18;7.38;;;;;;;20.24;36.22;101523.88;5049212;28;20033;-68
2023/04/10 10:09:00;;;;;;;10.20;7.00;;;;;;;20.55;35.69;101522.63;5050092;28;20048;-68
2023/04/10 10:11:27;;;;;;;14.45;8.27;;;;;;;20.40;35.52;101510.88;5048049;28;20029;-68
2023/04/10 10:13:53;;;;;;;13.00;8.27;;;;;;;20.33;35.55;101509.38;5049585;28;20035;-68
2023/04/10 10:16:37;;;;;;;11.93;7.60;;;;;;;21.62;34.04;101499.50;5049459;28;20029;-68
2023/04/10 10:19:09;;;;;;;15.63;8.45;;;;;;;21.42;34.59;101490.59;5047835;28;20041;-68
2023/04/10 10:21:36;;;;;;;14.35;8.85;;;;;;;22.07;32.72;101484.97;5049854;28;20024;-68
2023/04/10 10:24:07;;;;;;;12.70;8.63;;;;;;;21.12;34.71;101484.88;5048775;28;20100;-68
2023/04/10 10:26:34;;;;;;;12.68;7.90;;;;;;;23.16;32.26;101484.00;5047913;28;20021;-68
2023/04/10 10:29:05;;;;;;;10.88;8.20;;;;;;;23.32;31.53;101481.38;5048433;28;20392;-68
2023/04/10 10:31:33;;;;;;;11.93;8.50;;;;;;;23.31;31.83;101479.63;5049948;28;20103;-67
2023/04/10 10:34:03;;;;;;;14.50;8.82;;;;;;;21.83;33.32;101481.66;5047498;28;20476;-68
2023/04/10 10:36:30;;;;;;;13.20;8.55;;;;;;;22.78;32.49;101475.28;5048291;28;20036;-68
2023/04/10 10:39:14;;;;;;;13.93;9.05;;;;;;;22.25;32.61;101458.38;5049707;28;20392;-69
2023/04/10 10:41:48;;;;;;;14.60;9.45;;;;;;;22.91;31.80;101446.22;5048971;28;20048;-68
2023/04/10 10:44:38;;;;;;;11.43;8.55;;;;;;;22.06;33.73;101439.78;5048208;28;20087;-68
2023/04/10 10:47:15;;;;;;;13.88;8.73;;;;;;;22.45;33.42;101438.78;5047083;28;20051;-68
2023/04/10 10:49:55;;;;;;;14.55;9.13;;;;;;;23.44;31.52;101422.97;5049624;28;20099;-68
2023/04/10 10:52:39;;;;;;;12.48;8.52;;;;;;;22.62;32.26;101421.94;5049069;28;20043;-69
2023/04/10 10:55:41;;;;;;;14.98;9.50;;;;;;;22.62;32.75;101416.63;5048248;28;20067;-68
2023/04/10 10:58:07;;;;;;;16.70;9.27;;;;;;;23.04;32.39;101404.66;5047679;28;20454;-68
2023/04/10 11:00:51;;;;;;;16.25;9.63;;;;;;;24.83;30.64;101401.66;5048105;28;20048;-68
2023/04/10 11:03:16;;;;;;;23.23;11.25;;;;;;;24.56;29.88;101395.22;5047950;28;20473;-68
2023/04/10 11:06:02;;;;;;;13.27;9.65;;;;;;;24.05;30.18;101394.66;5048034;28;20032;-68
2023/04/10 11:08:46;;;;;;;11.02;8.30;;;;;;;23.79;31.54;101388.97;5049026;28;20112;-68
2023/04/10 11:11:14;;;;;;;16.23;8.35;;;;;;;23.83;31.67;101390.53;5052901;28;20025;-68
2023/04/10 11:13:56;;;;;;;13.15;8.00;;;;;;;23.39;31.97;101375.22;5052167;28;20021;-68
2023/04/10 11:16:32;;;;;;;13.52;7.80;;;;;;;24.28;31.06;101379.13;5052378;28;20057;-68
2023/04/10 11:19:02;;;;;;;9.02;7.53;;;;;;;23.13;32.55;101374.84;5052038;28;20029;-68